createdAt,value
2023-05-14T00:01:12.052Z,10.48
2023-05-14T00:04:13.817Z,10.48
2023-05-14T00:07:15.418Z,10.59
2023-05-14T00:10:19.095Z,10.60
2023-05-14T00:13:20.686Z,10.60
2023-05-14T00:16:22.293Z,10.55
2023-05-14T00:19:23.871Z,10.52
2023-05-14T00:22:25.552Z,10.49
2023-05-14T00:25:27.246Z,10.51
2023-05-14T00:28:28.780Z,10.54
2023-05-14T00:31:30.587Z,10.59
2023-05-14T00:34:32.172Z,10.55
2023-05-14T00:37:33.751Z,10.56
2023-05-14T00:40:35.517Z,10.50
2023-05-14T00:43:37.090Z,10.39
2023-05-14T00:46:38.714Z,10.38
2023-05-14T00:49:41.182Z,10.26
2023-05-14T00:52:43.197Z,10.24
2023-05-14T00:55:46.755Z,10.24
2023-05-14T00:58:48.378Z,10.09
2023-05-14T01:01:49.999Z,9.98
2023-05-14T01:04:53.370Z,9.88
2023-05-14T01:08:07.689Z,9.95
2023-05-14T01:11:42.201Z,10.01
2023-05-14T01:15:11.857Z,10.03
2023-05-14T01:18:14.471Z,10.07
2023-05-14T01:21:25.324Z,10.08
2023-05-14T01:24:27.075Z,10.13
2023-05-14T01:27:35.819Z,10.20
2023-05-14T01:30:48.841Z,10.28
2023-05-14T01:33:51.894Z,10.26
2023-05-14T01:36:56.456Z,10.22
2023-05-14T01:39:59.067Z,10.23
2023-05-14T01:43:01.255Z,10.18
2023-05-14T01:46:04.871Z,10.13
2023-05-14T01:49:06.699Z,10.13
2023-05-14T01:52:08.540Z,10.08
2023-05-14T01:55:10.986Z,10.11
2023-05-14T01:58:12.643Z,10.18
2023-05-14T02:01:14.220Z,10.19
2023-05-14T02:04:15.964Z,10.25
2023-05-14T02:07:17.653Z,10.20
2023-05-14T02:10:21.114Z,10.25
2023-05-14T02:13:26.137Z,10.31
2023-05-14T02:16:27.815Z,10.53
2023-05-14T02:19:30.086Z,10.49
2023-05-14T02:22:31.905Z,10.50
2023-05-14T02:25:33.624Z,10.48
2023-05-14T02:28:35.229Z,10.53
2023-05-14T02:31:37.138Z,10.51
2023-05-14T02:34:38.801Z,10.51
2023-05-14T02:37:40.334Z,10.52
2023-05-14T02:40:41.999Z,10.48
2023-05-14T02:43:43.589Z,10.47
2023-05-14T02:46:45.180Z,10.46
2023-05-14T02:49:46.828Z,10.45
2023-05-14T02:52:48.439Z,10.45
2023-05-14T02:55:50.031Z,10.45
2023-05-14T02:58:51.596Z,10.37
2023-05-14T03:01:53.461Z,10.37
2023-05-14T03:04:55.538Z,10.37
2023-05-14T03:07:57.174Z,10.31
2023-05-14T03:10:58.779Z,10.33
2023-05-14T03:14:00.412Z,10.31
2023-05-14T03:17:02.494Z,10.35
2023-05-14T03:20:04.489Z,10.27
2023-05-14T03:23:06.318Z,10.32
2023-05-14T03:26:08.347Z,10.32
2023-05-14T03:29:10.859Z,10.27
2023-05-14T03:32:12.545Z,10.19
2023-05-14T03:35:14.272Z,10.20
2023-05-14T03:38:15.865Z,10.22
2023-05-14T03:41:18.999Z,10.23
2023-05-14T03:44:20.547Z,10.26
2023-05-14T03:47:22.446Z,10.26
2023-05-14T03:50:25.715Z,10.21
2023-05-14T03:53:27.408Z,10.27
2023-05-14T03:56:28.980Z,10.19
2023-05-14T03:59:30.500Z,10.20
2023-05-14T04:02:32.345Z,10.28
2023-05-14T04:05:35.026Z,10.26
2023-05-14T04:08:36.708Z,10.26
2023-05-14T04:11:38.444Z,10.13
2023-05-14T04:14:40.246Z,10.14
2023-05-14T04:17:42.523Z,10.17
2023-05-14T04:20:44.132Z,10.20
2023-05-14T04:23:45.743Z,10.26
2023-05-14T04:26:47.274Z,10.24
2023-05-14T04:29:49.798Z,10.27
2023-05-14T04:32:51.660Z,10.31
2023-05-14T04:35:53.490Z,10.40
2023-05-14T04:38:55.033Z,10.40
2023-05-14T04:41:56.637Z,10.30
2023-05-14T04:44:58.708Z,10.43
2023-05-14T04:48:00.455Z,10.43
2023-05-14T04:51:02.087Z,10.41
2023-05-14T04:54:03.715Z,10.42
2023-05-14T04:57:05.381Z,10.45
2023-05-14T05:00:09.589Z,10.46
2023-05-14T05:03:11.188Z,10.49
2023-05-14T05:06:12.886Z,10.53
2023-05-14T05:09:14.573Z,10.53
2023-05-14T05:12:16.192Z,10.53
2023-05-14T05:15:17.837Z,10.62
2023-05-14T05:18:19.557Z,10.66
2023-05-14T05:21:21.234Z,10.71
2023-05-14T05:24:22.795Z,10.76
2023-05-14T05:27:24.440Z,10.77
2023-05-14T05:30:26.330Z,10.82
2023-05-14T05:33:27.995Z,10.80
2023-05-14T05:36:29.622Z,10.86
2023-05-14T05:39:34.710Z,10.79
2023-05-14T05:42:36.439Z,10.78
2023-05-14T05:45:37.969Z,10.91
2023-05-14T05:48:39.520Z,10.95
2023-05-14T05:51:41.054Z,10.96
2023-05-14T05:54:42.583Z,11.03
2023-05-14T05:57:44.174Z,11.07
2023-05-14T06:00:47.095Z,11.01
2023-05-14T06:03:48.771Z,11.11
2023-05-14T06:06:50.493Z,11.22
2023-05-14T06:09:52.042Z,11.32
2023-05-14T06:12:53.577Z,11.28
2023-05-14T06:15:55.235Z,11.37
2023-05-14T06:18:57.859Z,11.47
2023-05-14T06:21:59.653Z,11.51
2023-05-14T06:25:01.259Z,11.59
2023-05-14T06:28:02.918Z,11.64
2023-05-14T06:31:04.498Z,11.63
2023-05-14T06:34:06.126Z,11.62
2023-05-14T06:37:08.038Z,11.68
2023-05-14T06:40:10.783Z,11.77
2023-05-14T06:43:12.377Z,11.99
2023-05-14T06:46:13.936Z,12.03
2023-05-14T06:49:15.542Z,12.20
2023-05-14T06:52:17.155Z,12.53
2023-05-14T06:55:18.921Z,12.69
2023-05-14T06:58:20.530Z,12.83
2023-05-14T07:01:22.112Z,12.91
2023-05-14T07:04:23.748Z,12.94
2023-05-14T07:07:25.498Z,13.02
2023-05-14T07:10:27.204Z,13.25
2023-05-14T07:13:28.936Z,13.36
2023-05-14T07:16:30.887Z,13.65
2023-05-14T07:19:32.536Z,13.72
2023-05-14T07:22:34.032Z,13.97
2023-05-14T07:25:35.588Z,14.38
2023-05-14T07:28:37.196Z,14.42
2023-05-14T07:31:38.723Z,14.55
2023-05-14T07:34:40.452Z,14.81
2023-05-14T07:37:42.947Z,14.78
2023-05-14T07:40:44.648Z,14.72
2023-05-14T07:43:46.154Z,14.80
2023-05-14T07:46:47.942Z,15.36
2023-05-14T07:49:49.556Z,15.67
2023-05-14T07:52:51.179Z,16.00
2023-05-14T07:55:52.816Z,15.96
2023-05-14T07:58:54.422Z,15.94
2023-05-14T08:01:56.783Z,15.80
2023-05-14T08:04:58.471Z,15.57
2023-05-14T08:08:00.212Z,15.47
2023-05-14T08:11:02.728Z,15.69
2023-05-14T08:14:04.262Z,16.10
2023-05-14T08:17:06.158Z,16.12
2023-05-14T08:20:09.843Z,16.14
2023-05-14T08:23:11.555Z,15.95
2023-05-14T08:26:13.081Z,15.79
2023-05-14T08:29:16.534Z,15.69
2023-05-14T08:32:23.946Z,15.96
2023-05-14T08:35:26.048Z,16.02
2023-05-14T08:38:27.640Z,16.56
2023-05-14T08:41:29.880Z,17.07
2023-05-14T08:44:38.991Z,16.98
2023-05-14T08:47:40.702Z,17.11
2023-05-14T08:50:43.763Z,17.21
2023-05-14T08:53:45.530Z,17.54
2023-05-14T08:56:47.109Z,17.35
2023-05-14T08:59:48.670Z,17.51
2023-05-14T09:02:51.521Z,17.47
2023-05-14T09:05:53.720Z,17.50
2023-05-14T09:08:56.017Z,17.45
2023-05-14T09:11:57.616Z,18.23
2023-05-14T09:14:59.353Z,18.42
2023-05-14T09:18:01.068Z,18.52
2023-05-14T09:21:02.933Z,18.21
2023-05-14T09:24:04.672Z,18.39
2023-05-14T09:27:07.024Z,18.52
2023-05-14T09:30:13.091Z,18.62
2023-05-14T09:33:25.474Z,18.62
2023-05-14T09:36:27.295Z,18.18
2023-05-14T09:39:30.263Z,17.90
2023-05-14T09:42:32.595Z,18.26
2023-05-14T09:45:35.089Z,18.26
2023-05-14T09:48:36.698Z,18.29
2023-05-14T09:51:38.502Z,18.30
2023-05-14T09:54:40.506Z,18.01
2023-05-14T09:57:42.206Z,18.22
2023-05-14T10:00:46.154Z,18.34
2023-05-14T10:03:48.993Z,18.22
2023-05-14T10:06:53.236Z,18.01
2023-05-14T10:09:59.759Z,18.01
2023-05-14T10:13:08.399Z,18.19
2023-05-14T10:16:24.353Z,19.18
2023-05-14T10:19:26.452Z,19.27
2023-05-14T10:22:33.480Z,18.62
2023-05-14T10:25:36.545Z,18.72
2023-05-14T10:28:38.240Z,18.91
2023-05-14T10:32:06.950Z,19.11
2023-05-14T10:35:25.700Z,18.99
2023-05-14T10:38:33.913Z,18.70
2023-05-14T10:41:35.591Z,18.77
2023-05-14T10:44:45.392Z,18.91
2023-05-14T10:47:47.507Z,19.11
2023-05-14T10:50:51.934Z,20.10
2023-05-14T10:53:53.506Z,20.65
2023-05-14T10:56:59.215Z,20.50
2023-05-14T11:00:01.787Z,20.00
2023-05-14T11:03:05.681Z,19.65
2023-05-14T11:06:08.341Z,19.09
2023-05-14T11:09:10.712Z,19.20
2023-05-14T11:12:12.316Z,19.11
2023-05-14T11:15:21.170Z,19.60
2023-05-14T11:18:30.371Z,19.75
2023-05-14T11:21:34.972Z,20.45
2023-05-14T11:24:36.618Z,20.75
2023-05-14T11:27:39.343Z,21.22
2023-05-14T11:30:40.951Z,20.95
2023-05-14T11:33:42.900Z,21.70
2023-05-14T11:36:44.536Z,22.26
2023-05-14T11:39:52.147Z,22.39
2023-05-14T11:42:53.903Z,22.21
2023-05-14T11:45:55.929Z,21.37
2023-05-14T11:48:57.602Z,21.19
2023-05-14T11:52:00.551Z,21.00
2023-05-14T11:55:02.377Z,20.65
2023-05-14T11:58:03.981Z,20.48
2023-05-14T12:01:05.619Z,20.53
2023-05-14T12:04:07.333Z,20.49
2023-05-14T12:07:15.043Z,21.20
2023-05-14T12:10:16.609Z,21.56
2023-05-14T12:13:18.386Z,21.60
2023-05-14T12:16:20.693Z,21.73
2023-05-14T12:19:23.503Z,21.74
2023-05-14T12:22:25.138Z,21.50
2023-05-14T12:25:26.846Z,21.23
2023-05-14T12:28:28.686Z,21.12
2023-05-14T12:31:30.423Z,21.23
2023-05-14T12:34:32.058Z,21.32
2023-05-14T12:37:34.185Z,21.19
2023-05-14T12:40:36.451Z,21.18
2023-05-14T12:43:37.949Z,21.42
2023-05-14T12:46:39.592Z,21.17
2023-05-14T12:49:41.179Z,21.21
2023-05-14T12:52:42.836Z,20.72
2023-05-14T12:55:44.397Z,20.91
2023-05-14T12:58:46.821Z,21.15
2023-05-14T13:01:48.344Z,21.36
2023-05-14T13:04:50.006Z,21.03
2023-05-14T13:07:53.256Z,21.21
2023-05-14T13:10:56.252Z,21.16
2023-05-14T13:13:59.034Z,21.91
2023-05-14T13:17:00.965Z,22.45
2023-05-14T13:20:02.695Z,23.05
2023-05-14T13:23:04.452Z,23.47
2023-05-14T13:26:06.144Z,23.52
2023-05-14T13:29:07.694Z,23.09
2023-05-14T13:32:09.232Z,22.46
2023-05-14T13:35:11.433Z,22.19
2023-05-14T13:38:12.966Z,21.52
2023-05-14T13:41:14.648Z,21.11
2023-05-14T13:44:16.240Z,21.83
2023-05-14T13:47:18.025Z,22.43
2023-05-14T13:50:19.773Z,22.85
2023-05-14T13:53:23.092Z,23.07
2023-05-14T13:56:24.821Z,23.27
2023-05-14T13:59:27.952Z,23.68
2023-05-14T14:02:29.511Z,22.87
2023-05-14T14:05:31.767Z,23.01
2023-05-14T14:08:33.473Z,22.89
2023-05-14T14:11:35.115Z,22.97
2023-05-14T14:14:36.724Z,22.88
2023-05-14T14:17:39.228Z,22.67
2023-05-14T14:20:40.934Z,23.05
2023-05-14T14:23:42.489Z,22.13
2023-05-14T14:26:44.037Z,21.55
2023-05-14T14:29:45.744Z,21.37
2023-05-14T14:32:49.432Z,21.20
2023-05-14T14:35:51.771Z,20.69
2023-05-14T14:38:53.324Z,20.41
2023-05-14T14:41:55.256Z,20.90
2023-05-14T14:44:56.915Z,21.86
2023-05-14T14:48:27.493Z,21.95
2023-05-14T14:51:30.225Z,21.45
2023-05-14T14:54:31.895Z,20.82
2023-05-14T14:57:33.421Z,20.82
2023-05-14T15:00:35.144Z,20.41
2023-05-14T15:03:36.858Z,21.13
2023-05-14T15:06:38.411Z,21.58
2023-05-14T15:09:39.999Z,22.13
2023-05-14T15:12:41.734Z,22.17
2023-05-14T15:15:43.520Z,21.51
2023-05-14T15:18:45.157Z,21.90
2023-05-14T15:21:46.773Z,21.65
2023-05-14T15:24:48.332Z,21.81
2023-05-14T15:27:50.758Z,22.07
2023-05-14T15:30:52.861Z,22.29
2023-05-14T15:33:56.002Z,22.36
2023-05-14T15:36:57.565Z,21.83
2023-05-14T15:39:59.097Z,21.83
2023-05-14T15:43:00.835Z,21.95
2023-05-14T15:46:02.522Z,21.29
2023-05-14T15:49:04.043Z,21.68
2023-05-14T15:52:05.967Z,21.11
2023-05-14T15:55:07.889Z,21.79
2023-05-14T15:58:09.447Z,22.05
2023-05-14T16:01:11.516Z,22.25
2023-05-14T16:04:13.203Z,22.49
2023-05-14T16:07:15.268Z,22.30
2023-05-14T16:10:16.814Z,22.40
2023-05-14T16:13:18.413Z,22.08
2023-05-14T16:16:22.809Z,21.86
2023-05-14T16:19:24.509Z,21.98
2023-05-14T16:22:26.787Z,22.07
2023-05-14T16:25:30.510Z,21.91
2023-05-14T16:28:32.381Z,21.86
2023-05-14T16:31:34.085Z,21.93
2023-05-14T16:34:35.814Z,21.76
2023-05-14T16:37:37.418Z,21.79
2023-05-14T16:40:39.071Z,21.50
2023-05-14T16:43:40.818Z,21.30
2023-05-14T16:46:42.499Z,21.48
2023-05-14T16:49:44.022Z,21.24
2023-05-14T16:52:47.646Z,21.41
2023-05-14T16:55:49.581Z,21.32
2023-05-14T16:58:51.284Z,21.02
2023-05-14T17:01:53.028Z,20.75
2023-05-14T17:04:55.307Z,20.52
2023-05-14T17:07:56.927Z,20.65
2023-05-14T17:10:58.594Z,20.60
2023-05-14T17:14:00.145Z,20.42
2023-05-14T17:17:02.075Z,20.26
2023-05-14T17:23:07.435Z,19.87
2023-05-14T17:26:09.106Z,19.88
2023-05-14T17:29:10.722Z,19.89
2023-05-14T17:32:12.417Z,19.91
2023-05-14T17:35:14.007Z,19.85
2023-05-14T17:38:15.617Z,19.72
2023-05-14T17:41:17.300Z,19.61
2023-05-14T17:44:18.970Z,19.40
2023-05-14T17:47:21.041Z,19.28
2023-05-14T17:50:22.642Z,19.16
2023-05-14T17:53:24.248Z,19.01
2023-05-14T17:56:26.316Z,18.73
2023-05-14T17:59:27.937Z,18.35
2023-05-14T18:02:29.575Z,18.41
2023-05-14T18:05:31.810Z,18.46
2023-05-14T18:08:33.419Z,18.44
2023-05-14T18:11:35.571Z,18.34
2023-05-14T18:14:37.116Z,17.89
2023-05-14T18:17:38.775Z,17.59
2023-05-14T18:20:40.495Z,17.38
2023-05-14T18:23:42.012Z,17.10
2023-05-14T18:26:43.538Z,17.02
2023-05-14T18:29:45.351Z,16.83
2023-05-14T18:32:47.169Z,16.65
2023-05-14T18:35:49.103Z,16.56
2023-05-14T18:38:50.636Z,16.43
2023-05-14T18:41:52.290Z,16.27
2023-05-14T18:44:54.137Z,16.27
2023-05-14T18:47:56.255Z,16.06
2023-05-14T18:50:57.820Z,15.95
2023-05-14T18:53:59.363Z,15.82
2023-05-14T18:57:01.656Z,15.72
2023-05-14T19:00:04.026Z,15.76
2023-05-14T19:03:05.713Z,15.72
2023-05-14T19:06:07.864Z,15.70
2023-05-14T19:09:10.845Z,15.62
2023-05-14T19:12:12.516Z,15.57
2023-05-14T19:15:14.047Z,15.50
2023-05-14T19:18:17.571Z,15.33
2023-05-14T19:21:19.233Z,15.17
2023-05-14T19:24:20.877Z,15.08
2023-05-14T19:27:24.077Z,14.93
2023-05-14T19:30:25.632Z,14.78
2023-05-14T19:33:27.894Z,14.69
2023-05-14T19:36:31.614Z,14.60
2023-05-14T19:39:33.246Z,14.53
2023-05-14T19:42:34.826Z,14.39
2023-05-14T19:45:39.370Z,14.42
2023-05-14T19:48:41.268Z,14.26
2023-05-14T19:51:42.782Z,14.29
2023-05-14T19:54:44.320Z,14.26
2023-05-14T19:57:45.885Z,14.27
2023-05-14T20:00:50.996Z,14.18
2023-05-14T20:03:52.598Z,14.19
2023-05-14T20:06:54.250Z,14.23
2023-05-14T20:09:55.752Z,14.30
2023-05-14T20:12:57.314Z,14.34
2023-05-14T20:15:59.757Z,14.39
2023-05-14T20:19:01.519Z,14.37
2023-05-14T20:22:05.432Z,14.29
2023-05-14T20:25:07.571Z,14.30
2023-05-14T20:28:09.064Z,14.24
2023-05-14T20:31:10.622Z,14.20
2023-05-14T20:34:12.213Z,14.15
2023-05-14T20:37:13.737Z,14.19
2023-05-14T20:40:15.674Z,14.21
2023-05-14T20:43:17.389Z,14.29
2023-05-14T20:46:19.111Z,14.21
2023-05-14T20:49:20.784Z,14.09
2023-05-14T20:52:22.540Z,14.07
2023-05-14T20:55:24.322Z,13.89
2023-05-14T20:58:26.032Z,13.93
2023-05-14T21:01:27.660Z,13.80
2023-05-14T21:04:29.297Z,13.81
2023-05-14T21:07:31.757Z,13.80
2023-05-14T21:10:33.348Z,13.68
2023-05-14T21:13:34.929Z,13.49
2023-05-14T21:16:36.566Z,13.45
2023-05-14T21:19:38.216Z,13.44
2023-05-14T21:22:39.876Z,13.61
2023-05-14T21:25:41.537Z,13.55
2023-05-14T21:28:43.067Z,13.52
2023-05-14T21:31:44.753Z,13.49
2023-05-14T21:34:46.407Z,13.35
2023-05-14T21:37:47.898Z,13.31
2023-05-14T21:40:49.514Z,13.23
2023-05-14T21:43:51.060Z,13.09
2023-05-14T21:46:52.570Z,13.19
2023-05-14T21:49:54.210Z,13.11
2023-05-14T21:52:55.724Z,13.01
2023-05-14T21:55:57.386Z,13.16
2023-05-14T21:58:59.495Z,13.14
2023-05-14T22:05:05.794Z,13.06
2023-05-14T22:08:07.530Z,13.02
2023-05-14T22:11:09.069Z,12.99
2023-05-14T22:14:10.742Z,13.04
2023-05-14T22:17:12.730Z,13.02
2023-05-14T22:20:14.547Z,13.01
2023-05-14T22:23:16.190Z,13.07
2023-05-14T22:26:17.817Z,12.97
2023-05-14T22:29:19.412Z,12.92
2023-05-14T22:32:21.231Z,12.79
2023-05-14T22:35:22.884Z,12.85
2023-05-14T22:38:24.599Z,12.87
2023-05-14T22:41:26.661Z,12.82
2023-05-14T22:44:30.064Z,12.87
2023-05-14T22:47:31.915Z,12.83
2023-05-14T22:50:33.597Z,12.95
2023-05-14T22:53:35.294Z,12.96
2023-05-14T22:56:37.877Z,12.89
2023-05-14T22:59:39.535Z,12.87
2023-05-14T23:02:41.219Z,12.84
2023-05-14T23:05:42.795Z,12.77
2023-05-14T23:08:44.324Z,12.76
2023-05-14T23:11:46.232Z,12.79
2023-05-14T23:14:47.825Z,12.72
2023-05-14T23:17:49.517Z,12.72
2023-05-14T23:20:51.118Z,12.61
2023-05-14T23:23:52.675Z,12.64
2023-05-14T23:26:54.392Z,12.60
2023-05-14T23:29:55.973Z,12.47
2023-05-14T23:32:57.623Z,12.30
2023-05-14T23:35:59.279Z,12.36
2023-05-14T23:39:01.003Z,12.33
2023-05-14T23:42:02.650Z,12.29
2023-05-14T23:45:05.388Z,12.26
2023-05-14T23:48:07.255Z,12.28
2023-05-14T23:51:08.970Z,12.23
2023-05-14T23:54:10.720Z,12.20
2023-05-14T23:57:14.499Z,12.23
